PUA1367 SULS-SACO
Flight info
| Callsign | PUA1367 |
|---|---|
| Flight time | N/A |
| Altitude | 36000 |
| Route | LUCIO UL405 PTA DCT ATOVO UW5 ASISA ASISA1Z |
| Aircraft | A319/M-SDE3FGHIRWY/LB1 |
Departure
| Time | 2026-05-05 14:19 |
|---|---|
| Airport | Capitan Corbeta CA Curbelo International Airport (SULS) |
Arrival
| Time | N/A |
|---|---|
| Airport | Ingeniero Aeronáutico Ambrosio L.V. Taravella International Airport (SACO) |
| Time | Latitude | Longitude | Altitude | Speed | Heading |
|---|---|---|---|---|---|
| 2026-05-05 14:00 | -34.85967 | -55.09895 | 100 ft | 0 kts | 161° |
| 2026-05-05 14:14 | -34.85970 | -55.09894 | 100 ft | 1 kts | 160° |
| 2026-05-05 14:14 | -34.85986 | -55.09885 | 100 ft | 3 kts | 152° |
| 2026-05-05 14:14 | -34.85994 | -55.09856 | 100 ft | 4 kts | 94° |
| 2026-05-05 14:15 | -34.85983 | -55.09815 | 100 ft | 6 kts | 52° |
| 2026-05-05 14:15 | -34.85938 | -55.09807 | 100 ft | 8 kts | 345° |
| 2026-05-05 14:15 | -34.85878 | -55.09831 | 100 ft | 10 kts | 340° |
| 2026-05-05 14:15 | -34.85802 | -55.09862 | 100 ft | 13 kts | 342° |
| 2026-05-05 14:16 | -34.85713 | -55.09900 | 101 ft | 14 kts | 341° |
| 2026-05-05 14:16 | -34.85629 | -55.09872 | 101 ft | 14 kts | 53° |
| 2026-05-05 14:16 | -34.85590 | -55.09755 | 102 ft | 16 kts | 73° |
| 2026-05-05 14:16 | -34.85558 | -55.09621 | 102 ft | 18 kts | 73° |
| 2026-05-05 14:17 | -34.85519 | -55.09466 | 101 ft | 20 kts | 72° |
| 2026-05-05 14:17 | -34.85473 | -55.09301 | 102 ft | 22 kts | 73° |
| 2026-05-05 14:17 | -34.85441 | -55.09167 | 101 ft | 14 kts | 74° |
| 2026-05-05 14:17 | -34.85425 | -55.09083 | 100 ft | 9 kts | 90° |
| 2026-05-05 14:18 | -34.85430 | -55.09017 | 99 ft | 6 kts | 54° |
| 2026-05-05 14:18 | -34.85409 | -55.09029 | 100 ft | 3 kts | 289° |
| 2026-05-05 14:18 | -34.85411 | -55.09043 | 100 ft | 0 kts | 255° |
| 2026-05-05 14:19 | -34.85455 | -55.09218 | 102 ft | 53 kts | 252° |
| 2026-05-05 14:19 | -34.85646 | -55.09898 | 102 ft | 115 kts | 251° |
| 2026-05-05 14:19 | -34.85932 | -55.11015 | 282 ft | 146 kts | 254° |
| 2026-05-05 14:19 | -34.86216 | -55.12150 | 990 ft | 142 kts | 253° |
| 2026-05-05 14:20 | -34.86526 | -55.13321 | 1509 ft | 152 kts | 253° |
| 2026-05-05 14:20 | -34.86873 | -55.14633 | 1803 ft | 174 kts | 253° |
| 2026-05-05 14:20 | -34.87258 | -55.16106 | 2116 ft | 195 kts | 254° |
| 2026-05-05 14:20 | -34.87466 | -55.17785 | 2600 ft | 210 kts | 265° |
| 2026-05-05 14:21 | -34.87607 | -55.19670 | 3001 ft | 236 kts | 266° |
| 2026-05-05 14:21 | -34.87748 | -55.21740 | 3737 ft | 250 kts | 267° |
| 2026-05-05 14:21 | -34.87890 | -55.23852 | 4800 ft | 251 kts | 267° |
| 2026-05-05 14:21 | -34.88034 | -55.25962 | 5867 ft | 250 kts | 268° |
| 2026-05-05 14:22 | -34.88178 | -55.28078 | 6848 ft | 252 kts | 268° |
| 2026-05-05 14:22 | -34.88326 | -55.30223 | 7689 ft | 257 kts | 268° |
| 2026-05-05 14:22 | -34.88476 | -55.32419 | 8519 ft | 262 kts | 268° |
| 2026-05-05 14:22 | -34.88630 | -55.34652 | 9340 ft | 267 kts | 268° |
| 2026-05-05 14:23 | -34.88788 | -55.36932 | 10105 ft | 273 kts | 267° |
| 2026-05-05 14:23 | -34.88949 | -55.39315 | 10468 ft | 293 kts | 267° |
| 2026-05-05 14:23 | -34.89121 | -55.41887 | 10707 ft | 315 kts | 267° |
| 2026-05-05 14:23 | -34.89302 | -55.44583 | 11270 ft | 323 kts | 267° |
| 2026-05-05 14:24 | -34.89488 | -55.47289 | 11939 ft | 327 kts | 267° |
| 2026-05-05 14:24 | -34.89682 | -55.50065 | 12650 ft | 330 kts | 267° |
| 2026-05-05 14:24 | -34.89875 | -55.52865 | 13392 ft | 333 kts | 268° |
| 2026-05-05 14:24 | -34.90067 | -55.55683 | 14110 ft | 335 kts | 268° |
| 2026-05-05 14:25 | -34.90258 | -55.58513 | 14803 ft | 335 kts | 267° |
| 2026-05-05 14:25 | -34.90452 | -55.61352 | 15518 ft | 336 kts | 267° |
| 2026-05-05 14:25 | -34.90642 | -55.64185 | 16232 ft | 336 kts | 267° |
| 2026-05-05 14:25 | -34.90827 | -55.66985 | 16942 ft | 336 kts | 266° |
| 2026-05-05 14:26 | -34.91016 | -55.69826 | 17658 ft | 337 kts | 266° |
| 2026-05-05 14:26 | -34.91205 | -55.72668 | 18374 ft | 337 kts | 266° |
| 2026-05-05 14:26 | -34.91390 | -55.75517 | 18978 ft | 338 kts | 266° |
| 2026-05-05 14:26 | -34.91578 | -55.78390 | 19556 ft | 340 kts | 266° |
| 2026-05-05 14:27 | -34.91764 | -55.81276 | 20132 ft | 343 kts | 266° |
| 2026-05-05 14:27 | -34.91952 | -55.84183 | 20693 ft | 345 kts | 266° |
| 2026-05-05 14:27 | -34.92144 | -55.87115 | 21246 ft | 348 kts | 266° |
| 2026-05-05 14:27 | -34.92336 | -55.90064 | 21782 ft | 351 kts | 266° |
| 2026-05-05 14:28 | -34.92528 | -55.93040 | 22321 ft | 353 kts | 266° |
| 2026-05-05 14:28 | -34.92722 | -55.96035 | 22829 ft | 356 kts | 266° |
| 2026-05-05 14:28 | -34.92918 | -55.99060 | 23336 ft | 359 kts | 266° |
| 2026-05-05 14:28 | -34.93113 | -56.02105 | 23805 ft | 362 kts | 266° |
| 2026-05-05 14:29 | -34.93308 | -56.05170 | 24209 ft | 364 kts | 266° |
| 2026-05-05 14:29 | -34.93502 | -56.08221 | 24603 ft | 367 kts | 266° |
| 2026-05-05 14:29 | -34.93698 | -56.11337 | 24991 ft | 370 kts | 266° |
| 2026-05-05 14:29 | -34.93896 | -56.14471 | 25381 ft | 373 kts | 266° |
| 2026-05-05 14:30 | -34.94094 | -56.17633 | 25765 ft | 375 kts | 266° |
| 2026-05-05 14:30 | -34.94292 | -56.20818 | 26137 ft | 378 kts | 266° |
| 2026-05-05 14:30 | -34.94490 | -56.24025 | 26514 ft | 381 kts | 266° |
| 2026-05-05 14:30 | -34.94689 | -56.27259 | 26887 ft | 384 kts | 266° |
| 2026-05-05 14:31 | -34.94887 | -56.30512 | 27237 ft | 386 kts | 266° |
| 2026-05-05 14:31 | -34.95083 | -56.33784 | 27622 ft | 388 kts | 266° |
| 2026-05-05 14:31 | -34.95280 | -56.37082 | 28006 ft | 391 kts | 266° |
| 2026-05-05 14:31 | -34.95481 | -56.40402 | 28372 ft | 394 kts | 266° |
| 2026-05-05 14:32 | -34.95683 | -56.43747 | 28735 ft | 396 kts | 266° |
| 2026-05-05 14:32 | -34.95883 | -56.47102 | 29088 ft | 399 kts | 266° |
| 2026-05-05 14:32 | -34.96081 | -56.50484 | 29425 ft | 401 kts | 266° |
| 2026-05-05 14:32 | -34.96282 | -56.53887 | 29751 ft | 404 kts | 266° |
| 2026-05-05 14:33 | -34.96485 | -56.57313 | 30068 ft | 406 kts | 266° |
| 2026-05-05 14:33 | -34.96688 | -56.60761 | 30347 ft | 409 kts | 266° |
| 2026-05-05 14:33 | -34.96891 | -56.64229 | 30621 ft | 411 kts | 266° |
| 2026-05-05 14:33 | -34.97098 | -56.67711 | 30894 ft | 413 kts | 266° |
| 2026-05-05 14:34 | -34.97301 | -56.71165 | 31168 ft | 415 kts | 266° |
| 2026-05-05 14:34 | -34.97507 | -56.74681 | 31480 ft | 415 kts | 266° |
| 2026-05-05 14:34 | -34.97709 | -56.78180 | 31874 ft | 414 kts | 266° |
| 2026-05-05 14:34 | -34.97906 | -56.81675 | 32265 ft | 413 kts | 266° |
| 2026-05-05 14:35 | -34.98101 | -56.85162 | 32663 ft | 412 kts | 266° |
| 2026-05-05 14:35 | -34.98292 | -56.88638 | 33027 ft | 412 kts | 266° |
| 2026-05-05 14:35 | -34.98396 | -56.92124 | 33406 ft | 411 kts | 269° |
| 2026-05-05 14:35 | -34.98401 | -56.95609 | 33815 ft | 410 kts | 270° |
| 2026-05-05 14:36 | -34.98350 | -56.99078 | 34201 ft | 409 kts | 271° |
| 2026-05-05 14:36 | -34.98283 | -57.02548 | 34565 ft | 408 kts | 271° |
| 2026-05-05 14:36 | -34.98221 | -57.05996 | 34938 ft | 406 kts | 270° |
| 2026-05-05 14:36 | -34.98177 | -57.09430 | 35313 ft | 404 kts | 270° |
| 2026-05-05 14:37 | -34.98150 | -57.12848 | 35689 ft | 402 kts | 270° |
| 2026-05-05 14:37 | -34.98134 | -57.16248 | 35972 ft | 400 kts | 270° |
| 2026-05-05 14:37 | -34.98121 | -57.21856 | 36038 ft | 396 kts | 269° |
| 2026-05-05 14:38 | -34.98100 | -57.28556 | 36038 ft | 395 kts | 270° |
| 2026-05-05 14:38 | -34.98061 | -57.35247 | 36038 ft | 394 kts | 270° |
| 2026-05-05 14:39 | -34.98012 | -57.41936 | 36035 ft | 394 kts | 270° |
| 2026-05-05 14:39 | -34.97960 | -57.48614 | 36036 ft | 394 kts | 270° |
| 2026-05-05 14:40 | -34.97912 | -57.55292 | 36037 ft | 394 kts | 270° |
| 2026-05-05 14:40 | -34.97858 | -57.61966 | 36042 ft | 394 kts | 270° |
| 2026-05-05 14:41 | -34.97801 | -57.68603 | 36052 ft | 394 kts | 270° |
| 2026-05-05 14:41 | -34.97734 | -57.75324 | 36054 ft | 394 kts | 270° |
| 2026-05-05 14:42 | -34.97664 | -57.81968 | 36043 ft | 394 kts | 270° |
| 2026-05-05 14:42 | -34.96957 | -57.88612 | 36058 ft | 396 kts | 286° |
| 2026-05-05 14:43 | -34.94264 | -57.94459 | 36063 ft | 406 kts | 306° |
| 2026-05-05 14:43 | -34.90540 | -57.99630 | 36061 ft | 406 kts | 306° |
| 2026-05-05 14:44 | -34.86809 | -58.04816 | 36051 ft | 406 kts | 306° |
| 2026-05-05 14:44 | -34.83090 | -58.09985 | 36029 ft | 405 kts | 306° |
| 2026-05-05 14:45 | -34.79370 | -58.15139 | 36024 ft | 405 kts | 306° |
| 2026-05-05 14:45 | -34.75647 | -58.20269 | 36034 ft | 404 kts | 306° |
| 2026-05-05 14:46 | -34.71928 | -58.25398 | 36037 ft | 404 kts | 306° |
| 2026-05-05 14:46 | -34.68206 | -58.30530 | 36015 ft | 404 kts | 306° |
| 2026-05-05 14:47 | -34.65209 | -58.34661 | 36036 ft | 403 kts | 305° |
| 2026-05-05 14:47 | -34.61505 | -58.39768 | 36045 ft | 402 kts | 305° |
| 2026-05-05 14:48 | -34.57806 | -58.44850 | 36048 ft | 401 kts | 306° |
| 2026-05-05 14:48 | -34.54109 | -58.49914 | 36053 ft | 401 kts | 306° |
| 2026-05-05 14:49 | -34.50416 | -58.54977 | 36052 ft | 401 kts | 306° |
| 2026-05-05 14:49 | -34.46717 | -58.60034 | 36049 ft | 401 kts | 306° |
| 2026-05-05 14:50 | -34.43017 | -58.65078 | 36025 ft | 400 kts | 306° |
| 2026-05-05 14:50 | -34.39317 | -58.70114 | 36010 ft | 400 kts | 306° |
| 2026-05-05 14:51 | -34.35625 | -58.75146 | 35999 ft | 400 kts | 305° |
| 2026-05-05 14:51 | -34.31949 | -58.80133 | 36011 ft | 399 kts | 306° |
| 2026-05-05 14:52 | -34.28263 | -58.85144 | 36013 ft | 398 kts | 305° |
| 2026-05-05 14:52 | -34.24580 | -58.90141 | 36011 ft | 398 kts | 306° |
| 2026-05-05 14:53 | -34.20892 | -58.95119 | 36015 ft | 397 kts | 306° |
| 2026-05-05 14:53 | -34.17209 | -59.00095 | 36003 ft | 396 kts | 305° |
| 2026-05-05 14:54 | -34.13544 | -59.05046 | 36018 ft | 395 kts | 305° |
| 2026-05-05 14:54 | -34.09879 | -59.09990 | 36016 ft | 395 kts | 305° |
| 2026-05-05 14:55 | -34.06212 | -59.14922 | 36007 ft | 395 kts | 306° |
| 2026-05-05 14:55 | -34.02649 | -59.19901 | 35995 ft | 393 kts | 303° |
| 2026-05-05 14:56 | -33.99184 | -59.24981 | 36006 ft | 391 kts | 303° |
| 2026-05-05 14:56 | -33.95719 | -59.30045 | 36007 ft | 391 kts | 303° |
| 2026-05-05 14:57 | -33.92229 | -59.35069 | 36011 ft | 391 kts | 304° |
| 2026-05-05 14:57 | -33.88719 | -59.40088 | 36004 ft | 391 kts | 304° |
| 2026-05-05 14:58 | -33.85225 | -59.45096 | 35990 ft | 390 kts | 303° |
| 2026-05-05 14:58 | -33.81741 | -59.50100 | 35986 ft | 390 kts | 303° |
| 2026-05-05 14:59 | -33.78254 | -59.55084 | 35993 ft | 390 kts | 303° |
| 2026-05-05 14:59 | -33.74782 | -59.60031 | 35992 ft | 389 kts | 303° |
| 2026-05-05 15:00 | -33.71857 | -59.64202 | 35993 ft | 389 kts | 304° |
| 2026-05-05 15:00 | -33.67804 | -59.69962 | 35991 ft | 389 kts | 303° |
| 2026-05-05 15:01 | -33.64311 | -59.74921 | 35991 ft | 388 kts | 303° |
| 2026-05-05 15:01 | -33.60826 | -59.79859 | 35990 ft | 388 kts | 303° |
| 2026-05-05 15:02 | -33.57344 | -59.84793 | 35986 ft | 388 kts | 303° |
| 2026-05-05 15:02 | -33.53853 | -59.89724 | 35973 ft | 387 kts | 303° |
| 2026-05-05 15:03 | -33.50363 | -59.94650 | 35975 ft | 387 kts | 303° |
| 2026-05-05 15:03 | -33.46879 | -59.99566 | 35978 ft | 387 kts | 303° |
| 2026-05-05 15:04 | -33.43395 | -60.04470 | 35980 ft | 387 kts | 303° |
| 2026-05-05 15:04 | -33.39931 | -60.09344 | 35975 ft | 387 kts | 303° |
| 2026-05-05 15:05 | -33.34697 | -60.16688 | 35956 ft | 386 kts | 303° |
| 2026-05-05 15:06 | -33.31215 | -60.21573 | 35975 ft | 386 kts | 303° |
| 2026-05-05 15:06 | -33.27725 | -60.26461 | 35976 ft | 386 kts | 303° |
| 2026-05-05 15:07 | -33.24237 | -60.31328 | 35975 ft | 386 kts | 304° |
| 2026-05-05 15:07 | -33.20745 | -60.36190 | 35935 ft | 385 kts | 303° |
| 2026-05-05 15:08 | -33.17279 | -60.41024 | 35943 ft | 385 kts | 303° |
| 2026-05-05 15:08 | -33.13794 | -60.45882 | 35948 ft | 385 kts | 303° |
| 2026-05-05 15:09 | -33.10304 | -60.50732 | 35973 ft | 385 kts | 304° |
| 2026-05-05 15:09 | -33.06812 | -60.55579 | 35972 ft | 385 kts | 304° |
| 2026-05-05 15:10 | -33.03356 | -60.60370 | 35943 ft | 385 kts | 304° |
| 2026-05-05 15:10 | -32.99864 | -60.65202 | 35956 ft | 385 kts | 304° |
| 2026-05-05 15:11 | -32.96371 | -60.70035 | 35962 ft | 385 kts | 304° |
| 2026-05-05 15:11 | -32.92878 | -60.74865 | 35966 ft | 385 kts | 304° |
| 2026-05-05 15:12 | -32.89659 | -60.79846 | 35972 ft | 377 kts | 295° |
| 2026-05-05 15:12 | -32.87018 | -60.85232 | 35971 ft | 377 kts | 295° |
| 2026-05-05 15:13 | -32.84359 | -60.90599 | 35970 ft | 377 kts | 295° |
| 2026-05-05 15:13 | -32.81690 | -60.95971 | 35955 ft | 377 kts | 295° |
| 2026-05-05 15:14 | -32.79027 | -61.01344 | 35954 ft | 377 kts | 295° |
| 2026-05-05 15:14 | -32.76369 | -61.06710 | 35957 ft | 377 kts | 295° |
| 2026-05-05 15:15 | -32.73723 | -61.12041 | 35960 ft | 377 kts | 295° |
| 2026-05-05 15:15 | -32.71041 | -61.17439 | 35935 ft | 377 kts | 295° |
| 2026-05-05 15:16 | -32.68392 | -61.22757 | 35941 ft | 377 kts | 295° |
| 2026-05-05 15:16 | -32.65717 | -61.28116 | 35946 ft | 377 kts | 295° |
| 2026-05-05 15:17 | -32.63049 | -61.33465 | 35946 ft | 377 kts | 295° |
| 2026-05-05 15:17 | -32.60376 | -61.38813 | 35953 ft | 377 kts | 295° |
| 2026-05-05 15:18 | -32.57694 | -61.44152 | 35952 ft | 377 kts | 295° |
| 2026-05-05 15:18 | -32.55013 | -61.49491 | 35927 ft | 377 kts | 295° |
| 2026-05-05 15:19 | -32.52325 | -61.54836 | 35932 ft | 377 kts | 295° |
| 2026-05-05 15:19 | -32.49643 | -61.60173 | 35937 ft | 377 kts | 295° |
| 2026-05-05 15:20 | -32.46961 | -61.65506 | 35946 ft | 377 kts | 295° |
| 2026-05-05 15:20 | -32.44285 | -61.70800 | 35943 ft | 377 kts | 296° |
| 2026-05-05 15:21 | -32.41592 | -61.76128 | 35948 ft | 377 kts | 295° |
| 2026-05-05 15:21 | -32.38896 | -61.81450 | 35916 ft | 377 kts | 295° |
| 2026-05-05 15:22 | -32.36198 | -61.86768 | 35922 ft | 377 kts | 295° |
| 2026-05-05 15:22 | -32.33501 | -61.92084 | 35942 ft | 377 kts | 295° |
| 2026-05-05 15:23 | -32.30808 | -61.97398 | 35949 ft | 376 kts | 296° |
| 2026-05-05 15:23 | -32.28107 | -62.02701 | 35951 ft | 377 kts | 296° |
| 2026-05-05 15:24 | -32.25402 | -62.08001 | 35944 ft | 376 kts | 296° |
| 2026-05-05 15:24 | -32.22720 | -62.13265 | 35917 ft | 376 kts | 295° |
| 2026-05-05 15:25 | -32.20026 | -62.18546 | 35923 ft | 376 kts | 296° |
| 2026-05-05 15:25 | -32.17325 | -62.23829 | 35936 ft | 375 kts | 296° |
| 2026-05-05 15:26 | -32.14627 | -62.29100 | 35927 ft | 376 kts | 296° |
| 2026-05-05 15:26 | -32.13273 | -62.31749 | 35574 ft | 375 kts | 296° |
| 2026-05-05 15:26 | -32.12359 | -62.33531 | 35408 ft | 375 kts | 296° |
| 2026-05-05 15:26 | -32.11009 | -62.36161 | 35167 ft | 374 kts | 296° |
| 2026-05-05 15:27 | -32.09664 | -62.38784 | 34927 ft | 373 kts | 296° |
| 2026-05-05 15:27 | -32.08340 | -62.41363 | 34691 ft | 372 kts | 296° |
| 2026-05-05 15:27 | -32.06986 | -62.44000 | 34454 ft | 371 kts | 296° |
| 2026-05-05 15:27 | -32.05669 | -62.46563 | 34207 ft | 369 kts | 296° |
| 2026-05-05 15:28 | -32.04343 | -62.49138 | 33979 ft | 367 kts | 296° |
| 2026-05-05 15:28 | -32.03018 | -62.51704 | 33718 ft | 366 kts | 297° |
| 2026-05-05 15:28 | -32.01696 | -62.54261 | 33453 ft | 365 kts | 297° |
| 2026-05-05 15:28 | -32.00378 | -62.56815 | 33140 ft | 365 kts | 297° |
| 2026-05-05 15:29 | -31.99054 | -62.59378 | 32396 ft | 368 kts | 297° |
| 2026-05-05 15:29 | -31.97723 | -62.61955 | 31950 ft | 364 kts | 297° |
| 2026-05-05 15:29 | -31.96409 | -62.64488 | 31472 ft | 362 kts | 297° |
| 2026-05-05 15:29 | -31.95104 | -62.67010 | 31000 ft | 359 kts | 297° |
| 2026-05-05 15:30 | -31.93811 | -62.69507 | 30551 ft | 356 kts | 297° |
| 2026-05-05 15:30 | -31.92524 | -62.71989 | 30107 ft | 354 kts | 297° |
| 2026-05-05 15:30 | -31.91244 | -62.74459 | 29605 ft | 352 kts | 297° |
| 2026-05-05 15:30 | -31.89975 | -62.76912 | 29154 ft | 350 kts | 297° |
| 2026-05-05 15:31 | -31.88710 | -62.79350 | 28701 ft | 349 kts | 297° |
| 2026-05-05 15:31 | -31.87448 | -62.81780 | 28259 ft | 347 kts | 297° |
| 2026-05-05 15:31 | -31.86190 | -62.84196 | 27821 ft | 345 kts | 298° |
| 2026-05-05 15:31 | -31.84939 | -62.86589 | 27524 ft | 338 kts | 298° |
| 2026-05-05 15:32 | -31.83721 | -62.88912 | 27171 ft | 330 kts | 298° |
| 2026-05-05 15:32 | -31.82541 | -62.91169 | 26685 ft | 326 kts | 298° |
| 2026-05-05 15:32 | -31.81361 | -62.93434 | 26147 ft | 324 kts | 298° |
| 2026-05-05 15:32 | -31.80186 | -62.95695 | 25732 ft | 324 kts | 298° |